createdAt,value
2018-04-02T03:42:41.136Z,1.90
2018-04-02T03:45:08.764Z,1.70
2018-04-02T03:47:37.193Z,1.50
2018-04-02T03:50:04.858Z,1.50
2018-04-02T03:52:32.541Z,1.60
2018-04-02T03:55:00.184Z,1.50
2018-04-02T03:57:27.821Z,1.50
2018-04-02T03:59:55.501Z,1.40
2018-04-02T04:02:23.217Z,1.40
2018-04-02T04:04:51.615Z,1.20
2018-04-02T04:07:19.277Z,1.20
2018-04-02T04:09:46.980Z,1.20
2018-04-02T04:12:14.649Z,1.20
2018-04-02T04:14:42.290Z,1.40
2018-04-02T04:17:09.942Z,1.30
2018-04-02T04:19:37.607Z,1.20
2018-04-02T04:22:05.247Z,1.10
2018-04-02T04:24:32.882Z,1.20
2018-04-02T04:27:01.335Z,1.50
2018-04-02T04:29:28.968Z,1.50
2018-04-02T04:31:56.609Z,1.40
2018-04-02T04:34:24.271Z,1.50
2018-04-02T04:36:51.907Z,1.30
2018-04-02T04:39:19.540Z,1.10
2018-04-02T04:41:47.221Z,1.50
2018-04-02T04:44:14.860Z,1.50
2018-04-02T04:46:42.496Z,1.50
2018-04-02T04:49:10.173Z,1.40
2018-04-02T04:51:37.848Z,1.10
2018-04-02T04:54:06.249Z,0.50
2018-04-02T04:56:33.924Z,0.50
2018-04-02T04:59:01.564Z,0.30
2018-04-02T05:01:29.964Z,0.50
2018-04-02T05:03:57.637Z,0.50
2018-04-02T05:06:25.281Z,0.70
2018-04-02T05:08:52.916Z,1.00
2018-04-02T05:11:21.365Z,1.10
2018-04-02T05:13:48.996Z,1.00
2018-04-02T05:16:16.625Z,1.20
2018-04-02T05:18:44.317Z,1.40
2018-04-02T05:21:11.949Z,1.40
2018-04-02T05:23:39.580Z,1.40
2018-04-02T05:26:08.046Z,1.40
2018-04-02T05:28:35.681Z,1.40
2018-04-02T05:31:03.317Z,1.50
2018-04-02T05:33:31.085Z,1.50
2018-04-02T05:35:58.725Z,1.50
2018-04-02T05:38:26.381Z,1.50
2018-04-02T05:40:54.820Z,1.40
2018-04-02T05:43:22.457Z,1.30
2018-04-02T05:45:50.089Z,1.40
2018-04-02T05:48:17.773Z,1.50
2018-04-02T05:50:45.408Z,1.60
2018-04-02T05:53:13.037Z,1.70
2018-04-02T05:55:40.696Z,1.70
2018-04-02T05:58:08.333Z,1.70
2018-04-02T06:00:35.963Z,1.80
2018-04-02T06:03:03.621Z,1.80
2018-04-02T06:05:31.260Z,1.90
2018-04-02T06:07:59.660Z,2.20
2018-04-02T06:10:27.336Z,2.20
2018-04-02T06:12:54.968Z,2.30
2018-04-02T06:15:22.601Z,2.50
2018-04-02T06:17:51.050Z,2.90
2018-04-02T06:20:18.686Z,2.90
2018-04-02T06:22:46.328Z,3.00
2018-04-02T06:25:14.000Z,3.10
2018-04-02T06:27:41.633Z,3.30
2018-04-02T06:30:10.037Z,3.30
2018-04-02T06:32:37.745Z,3.20
2018-04-02T06:35:05.389Z,3.30
2018-04-02T06:37:33.032Z,3.40
2018-04-02T06:40:00.705Z,3.50
2018-04-02T06:42:28.339Z,3.80
2018-04-02T06:44:55.983Z,3.70
2018-04-02T06:47:23.660Z,3.40
2018-04-02T06:49:51.293Z,3.40
2018-04-02T06:52:19.703Z,3.70
2018-04-02T06:54:47.377Z,3.60
2018-04-02T06:57:15.009Z,3.80
2018-04-02T06:59:42.641Z,3.80
2018-04-02T07:02:10.316Z,3.70
2018-04-02T07:04:38.851Z,4.10
2018-04-02T07:07:06.536Z,4.10
2018-04-02T07:09:34.314Z,4.30
2018-04-02T07:12:02.858Z,3.80
2018-04-02T07:14:30.491Z,3.80
2018-04-02T07:16:58.145Z,3.90
2018-04-02T07:19:26.751Z,4.10
2018-04-02T07:21:54.708Z,4.40
2018-04-02T07:24:22.350Z,4.60
2018-04-02T07:26:50.018Z,4.50
2018-04-02T07:29:17.653Z,4.70
2018-04-02T07:31:46.062Z,4.70
2018-04-02T07:34:13.748Z,4.70
2018-04-02T07:36:41.386Z,4.60
2018-04-02T07:39:09.019Z,4.60
2018-04-02T07:41:37.751Z,4.80
2018-04-02T07:44:05.392Z,4.80
2018-04-02T07:46:33.029Z,4.90
2018-04-02T07:49:00.712Z,5.00
2018-04-02T07:51:28.406Z,5.10
2018-04-02T07:53:56.135Z,5.20
2018-04-02T07:56:23.810Z,5.20
2018-04-02T07:58:51.460Z,5.40
2018-04-02T08:01:19.140Z,5.50
2018-04-02T08:03:46.813Z,5.60
2018-04-02T08:06:14.454Z,5.60
2018-04-02T08:08:42.161Z,5.60
2018-04-02T08:11:09.787Z,5.80
2018-04-02T08:13:37.687Z,5.80
2018-04-02T08:16:05.425Z,5.80
2018-04-02T08:18:33.069Z,5.90
2018-04-02T08:21:01.170Z,6.00
2018-04-02T08:23:28.864Z,6.00
2018-04-02T08:25:56.504Z,5.90
2018-04-02T08:28:24.913Z,5.90
2018-04-02T08:30:52.586Z,5.90
2018-04-02T08:33:20.217Z,5.90
2018-04-02T08:35:47.852Z,6.00
2018-04-02T08:38:15.513Z,6.00
2018-04-02T08:40:43.918Z,6.10
2018-04-02T08:43:11.568Z,6.10
2018-04-02T08:45:39.267Z,6.30
2018-04-02T08:48:06.904Z,6.30
2018-04-02T08:50:34.536Z,6.30
2018-04-02T08:53:02.981Z,6.40
2018-04-02T08:55:30.620Z,6.40
2018-04-02T08:57:58.252Z,6.60
2018-04-02T09:00:26.696Z,6.60
2018-04-02T09:02:54.331Z,6.60
2018-04-02T09:05:21.977Z,6.50
2018-04-02T09:07:49.652Z,6.40
2018-04-02T09:10:17.290Z,6.40
2018-04-02T09:12:44.921Z,6.50
2018-04-02T09:15:13.365Z,6.90
2018-04-02T09:17:41.001Z,6.80
2018-04-02T09:20:08.637Z,7.10
2018-04-02T09:22:36.289Z,7.00
2018-04-02T09:25:04.688Z,6.90
2018-04-02T09:27:32.373Z,6.90
2018-04-02T09:30:00.017Z,6.90
2018-04-02T09:32:27.648Z,7.10
2018-04-02T09:34:55.332Z,7.10
2018-04-02T09:37:22.964Z,7.00
2018-04-02T09:39:51.365Z,7.10
2018-04-02T09:42:19.036Z,7.10
2018-04-02T09:44:46.682Z,7.20
2018-04-02T09:47:14.313Z,7.30
2018-04-02T09:49:42.732Z,7.30
2018-04-02T09:52:10.369Z,7.30
2018-04-02T09:54:38.049Z,7.30
2018-04-02T09:57:05.717Z,7.30
2018-04-02T09:59:33.348Z,7.30
2018-04-02T10:02:07.513Z,7.50
2018-04-02T10:04:36.036Z,7.70
2018-04-02T10:07:03.612Z,7.70
2018-04-02T10:09:31.302Z,8.10
2018-04-02T10:11:58.948Z,8.20
2018-04-02T10:14:26.596Z,8.10
2018-04-02T10:16:54.281Z,8.00
2018-04-02T10:19:21.916Z,7.80
2018-04-02T10:21:49.553Z,7.80
2018-04-02T10:24:17.986Z,7.80
2018-04-02T10:26:45.616Z,7.80
2018-04-02T10:29:13.303Z,7.90
2018-04-02T10:31:40.952Z,8.20
2018-04-02T10:34:08.581Z,8.30
2018-04-02T10:36:36.240Z,8.40
2018-04-02T10:39:07.564Z,8.10
2018-04-02T10:41:35.192Z,8.00
2018-04-02T10:44:02.856Z,8.10
2018-04-02T10:46:30.487Z,8.10
2018-04-02T10:48:58.148Z,7.90
2018-04-02T10:51:25.784Z,7.80
2018-04-02T10:53:54.254Z,7.60
2018-04-02T10:56:22.674Z,7.70
2018-04-02T10:58:50.312Z,7.70
2018-04-02T11:01:17.969Z,7.80
2018-04-02T11:03:45.612Z,7.90
2018-04-02T11:06:14.048Z,8.30
2018-04-02T11:08:41.689Z,8.30
2018-04-02T11:11:09.363Z,8.40
2018-04-02T11:13:36.992Z,8.40
2018-04-02T11:16:04.626Z,8.10
2018-04-02T11:18:32.310Z,8.20
2018-04-02T11:21:00.001Z,8.30
2018-04-02T11:23:27.641Z,8.30
2018-04-02T11:25:55.303Z,8.30
2018-04-02T11:28:23.003Z,8.50
2018-04-02T11:30:50.635Z,8.60
2018-04-02T11:33:18.298Z,8.70
2018-04-02T11:35:45.962Z,8.50
2018-04-02T11:38:13.603Z,8.30
2018-04-02T11:40:41.241Z,8.60
2018-04-02T11:43:09.669Z,8.50
2018-04-02T11:45:37.312Z,8.50
2018-04-02T11:48:05.001Z,8.70
2018-04-02T11:50:32.653Z,8.60
2018-04-02T11:53:00.334Z,8.80
2018-04-02T11:55:27.986Z,9.10
2018-04-02T11:57:55.639Z,9.10
2018-04-02T12:00:23.318Z,9.00
2018-04-02T12:02:50.961Z,8.90
2018-04-02T12:05:19.157Z,9.20
2018-04-02T12:07:47.756Z,9.50
2018-04-02T12:10:16.157Z,9.70
2018-04-02T12:12:43.793Z,9.70
2018-04-02T12:15:12.220Z,10.10
2018-04-02T12:17:39.861Z,10.00
2018-04-02T12:20:07.610Z,10.00
2018-04-02T12:22:36.001Z,10.00
2018-04-02T12:25:03.676Z,10.00
2018-04-02T12:27:31.387Z,10.20
2018-04-02T12:29:59.029Z,10.10
2018-04-02T12:32:26.660Z,10.00
2018-04-02T12:34:54.325Z,10.20
2018-04-02T12:37:21.961Z,10.20
2018-04-02T12:39:49.623Z,10.40
2018-04-02T12:42:17.284Z,10.40
2018-04-02T12:44:44.948Z,10.20
2018-04-02T12:47:12.593Z,10.40
2018-04-02T12:49:40.261Z,10.60
2018-04-02T12:52:07.898Z,10.80
2018-04-02T12:54:36.301Z,10.90
2018-04-02T12:57:03.984Z,10.90
2018-04-02T12:59:31.621Z,10.70
2018-04-02T13:01:59.256Z,10.80
2018-04-02T13:04:27.737Z,10.40
2018-04-02T13:06:55.363Z,10.40
2018-04-02T13:09:23.040Z,10.30
2018-04-02T13:11:50.676Z,10.10
2018-04-02T13:14:18.309Z,10.00
2018-04-02T13:16:45.969Z,9.70
2018-04-02T13:19:13.646Z,9.80
2018-04-02T13:21:41.296Z,10.00
2018-04-02T13:24:08.931Z,10.30
2018-04-02T13:26:37.353Z,10.50
2018-04-02T13:29:04.993Z,10.50
2018-04-02T13:31:32.698Z,10.60
2018-04-02T13:34:00.345Z,10.60
2018-04-02T13:36:27.982Z,10.50
2018-04-02T13:38:55.633Z,10.30
2018-04-02T13:41:23.292Z,10.20
2018-04-02T13:43:50.972Z,10.20
2018-04-02T13:46:18.610Z,10.30
2018-04-02T13:48:46.292Z,10.20
2018-04-02T13:51:13.971Z,10.40
2018-04-02T13:53:41.610Z,10.60
2018-04-02T13:56:09.246Z,10.60
2018-04-02T13:58:36.904Z,10.50
2018-04-02T14:01:04.574Z,10.30
2018-04-02T14:03:32.304Z,10.30
2018-04-02T14:05:59.934Z,10.20
2018-04-02T14:08:27.576Z,10.20
2018-04-02T14:10:55.320Z,10.30
2018-04-02T14:13:22.974Z,10.40
2018-04-02T14:15:50.627Z,10.40
2018-04-02T14:18:18.353Z,10.40
2018-04-02T14:20:45.992Z,10.50
2018-04-02T14:23:13.628Z,10.50
2018-04-02T14:25:41.336Z,10.50
2018-04-02T14:28:08.972Z,10.60
2018-04-02T14:30:36.614Z,10.60
2018-04-02T14:33:04.317Z,10.50
2018-04-02T14:35:31.960Z,10.50
2018-04-02T14:37:59.600Z,10.70
2018-04-02T14:40:27.296Z,10.90
2018-04-02T14:42:54.962Z,10.90
2018-04-02T14:45:22.605Z,10.80
2018-04-02T14:47:51.074Z,10.70
2018-04-02T14:50:18.714Z,10.70
2018-04-02T14:52:46.351Z,10.70
2018-04-02T14:55:14.031Z,10.60
2018-04-02T14:57:41.670Z,10.60
2018-04-02T15:00:10.072Z,10.80
2018-04-02T15:02:37.756Z,10.70
2018-04-02T15:05:05.393Z,10.80
2018-04-02T15:07:33.039Z,10.80
2018-04-02T15:10:00.728Z,10.90
2018-04-02T15:12:28.364Z,10.80
2018-04-02T15:14:56.070Z,10.90
2018-04-02T15:17:23.755Z,11.00
2018-04-02T15:19:52.193Z,11.10
2018-04-02T15:22:20.601Z,11.00
2018-04-02T15:24:48.270Z,11.00
2018-04-02T15:27:16.725Z,11.20
2018-04-02T15:29:44.380Z,11.20
2018-04-02T15:32:12.016Z,11.40
2018-04-02T15:34:39.698Z,11.80
2018-04-02T15:37:07.386Z,11.90
2018-04-02T15:39:36.637Z,11.50
2018-04-02T15:42:04.290Z,11.50
2018-04-02T15:44:31.956Z,11.40
2018-04-02T15:46:59.606Z,11.20
2018-04-02T15:49:27.273Z,10.90
2018-04-02T15:51:54.920Z,11.00
2018-04-02T15:54:22.900Z,11.00
2018-04-02T15:56:50.604Z,11.20
2018-04-02T15:59:18.248Z,11.20
2018-04-02T16:01:46.727Z,11.20
2018-04-02T16:04:15.189Z,11.30
2018-04-02T16:06:42.820Z,11.30
2018-04-02T16:09:11.683Z,11.80
2018-04-02T16:11:39.822Z,11.80
2018-04-02T16:14:07.516Z,12.30
2018-04-02T16:16:35.181Z,12.30
2018-04-02T16:19:03.624Z,12.10
2018-04-02T16:21:31.272Z,12.00
2018-04-02T16:23:58.966Z,11.90
2018-04-02T16:26:27.345Z,12.00
2018-04-02T16:28:55.053Z,11.90
2018-04-02T16:31:22.734Z,11.70
2018-04-02T16:33:50.373Z,11.50
2018-04-02T16:36:18.012Z,11.20
2018-04-02T16:38:46.456Z,10.60
2018-04-02T16:41:14.862Z,10.40
2018-04-02T16:43:43.479Z,10.30
2018-04-02T16:46:11.157Z,10.30
2018-04-02T16:48:38.788Z,10.20
2018-04-02T16:51:06.721Z,10.10
2018-04-02T16:53:34.471Z,10.10
2018-04-02T16:56:02.151Z,9.90
2018-04-02T16:58:29.859Z,9.80
2018-04-02T17:00:57.489Z,9.70
2018-04-02T17:03:25.888Z,9.30
2018-04-02T17:05:53.577Z,9.30
2018-04-02T17:08:21.241Z,9.20
2018-04-02T17:10:48.922Z,9.10
2018-04-02T17:13:16.562Z,9.00
2018-04-02T17:15:44.197Z,8.90
2018-04-02T17:18:11.861Z,8.90
2018-04-02T17:20:39.492Z,9.00
2018-04-02T17:23:07.137Z,9.00
2018-04-02T17:25:34.808Z,9.00
2018-04-02T17:28:03.235Z,8.60
2018-04-02T17:30:31.207Z,8.60
2018-04-02T17:32:58.883Z,8.40
2018-04-02T17:35:26.516Z,8.20
2018-04-02T17:37:54.192Z,8.00
2018-04-02T17:40:21.863Z,7.80
2018-04-02T17:42:50.283Z,7.60
2018-04-02T17:45:18.741Z,7.40
2018-04-02T17:47:46.384Z,7.30
2018-04-02T17:50:14.016Z,7.30
2018-04-02T17:52:41.669Z,7.40
2018-04-02T17:55:09.314Z,7.40
2018-04-02T17:57:37.360Z,7.30
2018-04-02T18:00:06.461Z,7.40
2018-04-02T18:02:34.910Z,7.30
2018-04-02T18:05:02.549Z,7.30
2018-04-02T18:07:30.185Z,7.10
2018-04-02T18:09:57.865Z,7.00
2018-04-02T18:12:25.502Z,6.90
2018-04-02T18:14:53.142Z,6.80
2018-04-02T18:17:21.577Z,6.70
2018-04-02T18:19:49.281Z,6.70
2018-04-02T18:22:17.685Z,6.60
2018-04-02T18:24:45.320Z,6.60
2018-04-02T18:27:13.761Z,6.60
2018-04-02T18:29:41.400Z,6.60
2018-04-02T18:32:09.034Z,6.60
2018-04-02T18:34:36.688Z,6.60
2018-04-02T18:37:04.326Z,6.60
2018-04-02T18:39:32.000Z,6.60
2018-04-02T18:42:00.409Z,6.50
2018-04-02T18:44:28.044Z,6.50
2018-04-02T18:46:56.473Z,6.40
2018-04-02T18:49:24.147Z,6.40
2018-04-02T18:51:51.780Z,6.50
2018-04-02T18:54:19.454Z,6.40
2018-04-02T18:56:47.128Z,6.40
2018-04-02T18:59:14.756Z,6.40
2018-04-02T19:01:42.391Z,6.30
2018-04-02T19:04:10.044Z,6.30
2018-04-02T19:06:38.443Z,6.10
2018-04-02T19:09:06.083Z,6.10
2018-04-02T19:11:33.868Z,6.10
2018-04-02T19:14:01.496Z,6.00
2018-04-02T19:16:29.910Z,6.10
2018-04-02T19:18:57.564Z,6.10
2018-04-02T19:21:25.195Z,6.10
2018-04-02T19:23:53.632Z,6.40
2018-04-02T19:26:21.290Z,6.40
2018-04-02T19:28:48.926Z,6.30
2018-04-02T19:31:16.616Z,6.40
2018-04-02T19:33:44.252Z,6.40
2018-04-02T19:36:11.901Z,6.40
2018-04-02T19:38:39.557Z,6.40
2018-04-02T19:41:07.200Z,6.30
2018-04-02T19:43:35.645Z,6.30
2018-04-02T19:46:03.309Z,6.30
2018-04-02T19:48:30.956Z,6.20
2018-04-02T19:50:58.629Z,6.20
2018-04-02T19:53:27.773Z,6.30
2018-04-02T19:55:55.472Z,6.30
2018-04-02T19:58:23.149Z,6.50
2018-04-02T20:00:51.552Z,6.40
2018-04-02T20:03:19.952Z,6.30
2018-04-02T20:05:47.609Z,6.30
2018-04-02T20:08:15.281Z,6.10
2018-04-02T20:10:42.944Z,6.20
2018-04-02T20:13:10.629Z,6.30
2018-04-02T20:15:38.269Z,6.40
2018-04-02T20:18:05.904Z,6.50
2018-04-02T20:20:34.445Z,6.50
2018-04-02T20:23:02.113Z,6.50
2018-04-02T20:25:31.982Z,6.50
2018-04-02T20:28:03.107Z,6.40
2018-04-02T20:30:33.330Z,6.40
2018-04-02T20:33:01.139Z,6.40
2018-04-02T20:35:28.824Z,6.40
2018-04-02T20:37:56.470Z,6.40
2018-04-02T20:40:24.141Z,6.40
2018-04-02T20:42:51.820Z,6.50
2018-04-02T20:45:20.220Z,6.60
2018-04-02T20:47:47.855Z,6.50
2018-04-02T20:50:16.413Z,6.50
2018-04-02T20:52:44.053Z,6.50
2018-04-02T20:55:11.689Z,6.70
2018-04-02T20:57:39.341Z,6.60
2018-04-02T21:00:07.737Z,6.60
2018-04-02T21:02:35.376Z,6.60
2018-04-02T21:05:03.068Z,6.50
2018-04-02T21:07:30.709Z,6.50
2018-04-02T21:09:58.350Z,6.50
2018-04-02T21:12:26.032Z,6.50
2018-04-02T21:14:53.673Z,6.50
2018-04-02T21:17:21.375Z,6.50
2018-04-02T21:19:49.052Z,6.60
2018-04-02T21:22:16.697Z,6.30
2018-04-02T21:24:44.329Z,6.10
2018-04-02T21:27:11.996Z,5.90
2018-04-02T21:29:39.640Z,6.00
2018-04-02T21:32:07.342Z,6.00
2018-04-02T21:34:35.017Z,6.00
2018-04-02T21:37:02.653Z,6.10
2018-04-02T21:39:30.293Z,6.20
2018-04-02T21:41:57.969Z,6.30
2018-04-02T21:44:25.638Z,6.30
2018-04-02T21:46:53.277Z,6.30
2018-04-02T21:49:20.958Z,6.50
2018-04-02T21:51:48.605Z,6.50
2018-04-02T21:54:16.233Z,6.30
2018-04-02T21:56:44.681Z,6.20
2018-04-02T21:59:12.312Z,6.20
2018-04-02T22:01:39.943Z,6.10
2018-04-02T22:04:07.613Z,6.00
2018-04-02T22:06:47.050Z,6.20
2018-04-02T22:09:14.757Z,6.20
2018-04-02T22:11:42.388Z,6.20
2018-04-02T22:14:10.021Z,5.90
2018-04-02T22:16:37.707Z,5.90
2018-04-02T22:19:05.353Z,5.90
2018-04-02T22:21:32.991Z,5.90
2018-04-02T22:24:01.444Z,6.10
2018-04-02T22:26:29.080Z,6.00
2018-04-02T22:28:56.713Z,5.80
